Time;durP1;ratioP1;P1;durP2;ratioP2;P2;SDS_P1;SDS_P2;PMS_P1;PMS_P2;Temp;Humidity;BMP_temperature;BMP_pressure;BME280_temperature;BME280_humidity;BME280_pressure;Samples;Min_cycle;Max_cycle;Signal;HPM_P1;HPM_P2
2021/05/25 00:00:00;;;;;;;1.20;0.60;;;10.80;91.20;;;;;;4959227;28;20279;-84
2021/05/25 00:02:38;;;;;;;1.00;0.43;;;10.80;91.00;;;;;;4967586;28;20270;-83
2021/05/25 00:05:07;;;;;;;1.48;0.55;;;10.80;91.40;;;;;;4965185;28;20223;-83
2021/05/25 00:07:35;;;;;;;1.77;0.77;;;10.80;91.20;;;;;;4967326;28;20192;-84
2021/05/25 00:10:15;;;;;;;1.40;0.68;;;10.80;91.30;;;;;;4973234;28;20226;-83
2021/05/25 00:13:00;;;;;;;1.20;0.63;;;10.80;90.80;;;;;;4969749;28;20184;-84
2021/05/25 00:15:33;;;;;;;1.00;0.40;;;10.90;90.60;;;;;;4949986;28;20270;-83
2021/05/25 00:18:12;;;;;;;1.95;0.60;;;10.90;90.40;;;;;;4967260;28;20727;-84
2021/05/25 00:21:02;;;;;;;1.70;0.65;;;10.90;90.50;;;;;;4968831;28;20190;-84
2021/05/25 00:23:44;;;;;;;3.63;0.80;;;10.80;90.30;;;;;;4980990;28;20311;-85
2021/05/25 00:26:12;;;;;;;1.27;0.40;;;10.80;90.40;;;;;;4949765;28;20234;-83
2021/05/25 00:28:42;;;;;;;3.28;0.77;;;10.70;90.30;;;;;;4954390;28;20227;-84
2021/05/25 00:31:44;;;;;;;1.38;0.63;;;10.70;90.40;;;;;;4982407;28;20197;-84
2021/05/25 00:34:18;;;;;;;2.08;0.68;;;10.70;90.40;;;;;;4965784;28;20224;-84
2021/05/25 00:37:06;;;;;;;2.13;0.60;;;10.70;90.60;;;;;;4987758;28;20221;-82
2021/05/25 00:40:07;;;;;;;1.63;0.65;;;10.70;90.40;;;;;;4997591;28;20217;-85
2021/05/25 00:42:39;;;;;;;1.38;0.50;;;10.60;90.50;;;;;;5001673;28;20301;-83
2021/05/25 00:45:10;;;;;;;1.40;0.60;;;10.60;90.80;;;;;;5004691;28;20214;-84
2021/05/25 00:47:49;;;;;;;1.80;0.60;;;10.60;90.50;;;;;;5015306;28;20183;-83
2021/05/25 00:53:36;;;;;;;1.90;0.60;;;10.50;90.80;;;;;;4981839;28;20234;-84
2021/05/25 00:56:04;;;;;;;1.85;0.90;;;10.50;90.90;;;;;;5000223;23;20556;-76
2021/05/25 00:58:34;;;;;;;1.20;0.50;;;10.50;91.20;;;;;;5012536;28;20228;-75
2021/05/25 01:01:04;;;;;;;1.15;0.40;;;10.50;91.10;;;;;;5019101;28;20214;-75
2021/05/25 01:03:32;;;;;;;1.20;0.60;;;10.50;91.20;;;;;;5011088;28;20230;-76
2021/05/25 01:05:58;;;;;;;1.35;0.50;;;10.50;91.20;;;;;;5012986;28;20205;-75
2021/05/25 01:08:26;;;;;;;2.50;0.60;;;10.50;91.40;;;;;;5011377;28;20241;-75
2021/05/25 01:11:02;;;;;;;2.30;0.57;;;10.50;91.30;;;;;;5010678;28;20566;-75
2021/05/25 01:13:30;;;;;;;1.38;0.45;;;10.50;91.30;;;;;;5031190;28;20311;-76
2021/05/25 01:15:58;;;;;;;4.00;0.68;;;10.40;91.40;;;;;;5004081;28;20197;-76
2021/05/25 01:18:24;;;;;;;5.75;1.10;;;10.40;92.00;;;;;;5028315;28;20557;-76
2021/05/25 01:20:53;;;;;;;1.10;0.40;;;10.30;92.30;;;;;;5003345;28;20247;-74
2021/05/25 01:23:20;;;;;;;1.65;0.50;;;10.30;93.50;;;;;;5012166;28;20827;-74
2021/05/25 01:25:47;;;;;;;2.35;0.65;;;10.20;93.10;;;;;;4982808;28;20272;-75
2021/05/25 01:28:19;;;;;;;1.67;0.45;;;10.20;93.50;;;;;;5023417;28;20642;-75
2021/05/25 01:30:49;;;;;;;1.65;0.30;;;10.20;93.70;;;;;;5014290;28;20189;-75
2021/05/25 01:33:20;;;;;;;1.00;0.30;;;10.20;93.90;;;;;;5015691;28;20194;-76
2021/05/25 01:35:47;;;;;;;3.08;0.70;;;10.20;93.70;;;;;;5012364;28;20236;-73
2021/05/25 01:38:15;;;;;;;1.10;0.40;;;10.20;93.60;;;;;;5010382;28;20241;-76
2021/05/25 01:40:43;;;;;;;2.95;0.95;;;10.20;94.40;;;;;;4992288;28;20226;-75
2021/05/25 01:43:11;;;;;;;1.40;0.43;;;10.20;94.80;;;;;;5031295;28;20208;-75
2021/05/25 01:45:38;;;;;;;1.73;0.50;;;10.20;95.10;;;;;;5013892;28;20655;-76
2021/05/25 01:48:07;;;;;;;1.00;0.32;;;10.20;95.30;;;;;;4990574;28;20219;-75
2021/05/25 01:50:36;;;;;;;1.20;0.50;;;10.10;95.30;;;;;;4977411;28;20233;-77
2021/05/25 01:53:26;;;;;;;2.00;0.50;;;10.10;95.60;;;;;;5035772;28;20182;-75
2021/05/25 01:55:55;;;;;;;1.00;0.40;;;10.10;94.80;;;;;;5010125;28;20205;-76
2021/05/25 01:58:33;;;;;;;1.30;0.65;;;10.10;95.10;;;;;;5010544;28;20280;-74
2021/05/25 02:01:04;;;;;;;1.42;0.57;;;10.00;94.80;;;;;;4975313;28;20190;-75
2021/05/25 02:03:32;;;;;;;3.38;0.52;;;10.00;94.90;;;;;;4974894;28;20636;-75
2021/05/25 02:05:59;;;;;;;1.33;0.32;;;10.00;95.30;;;;;;4987298;28;20185;-75
2021/05/25 02:08:26;;;;;;;1.10;0.40;;;9.90;95.80;;;;;;5010777;28;20242;-74
2021/05/25 02:10:56;;;;;;;1.10;0.43;;;9.80;95.90;;;;;;5020462;28;20213;-75
2021/05/25 02:13:24;;;;;;;1.20;0.50;;;9.80;96.10;;;;;;5033507;28;20220;-75
2021/05/25 02:15:56;;;;;;;1.48;0.40;;;9.80;96.20;;;;;;5015059;28;20186;-77
2021/05/25 02:18:26;;;;;;;1.10;0.40;;;9.80;96.30;;;;;;4995647;28;20236;-75
2021/05/25 02:20:56;;;;;;;1.30;0.63;;;9.80;96.30;;;;;;5014076;28;20186;-74
2021/05/25 02:23:24;;;;;;;1.40;0.47;;;9.90;96.10;;;;;;4994870;28;20313;-76
2021/05/25 02:25:52;;;;;;;1.70;0.40;;;9.90;95.90;;;;;;5006648;28;20835;-74
2021/05/25 02:28:19;;;;;;;1.98;0.47;;;9.90;95.80;;;;;;5033705;28;20205;-74
2021/05/25 02:30:47;;;;;;;1.50;0.70;;;9.90;95.60;;;;;;5017247;28;20209;-76
2021/05/25 02:33:16;;;;;;;1.20;0.50;;;9.90;95.80;;;;;;5014839;28;20205;-75
2021/05/25 02:35:44;;;;;;;1.75;0.60;;;9.90;95.70;;;;;;5013757;28;20194;-75
2021/05/25 02:38:13;;;;;;;1.40;0.65;;;9.90;95.80;;;;;;5032176;28;20201;-76
2021/05/25 02:40:44;;;;;;;1.50;0.60;;;9.90;96.10;;;;;;5021915;28;20182;-74
2021/05/25 02:43:14;;;;;;;1.30;0.43;;;9.90;96.80;;;;;;5015074;28;20213;-75
2021/05/25 02:45:42;;;;;;;1.48;0.50;;;9.90;97.70;;;;;;5034240;28;20665;-76
2021/05/25 02:48:09;;;;;;;1.77;0.40;;;9.90;98.20;;;;;;4978087;28;20290;-73
2021/05/25 02:50:36;;;;;;;1.10;0.40;;;9.90;98.70;;;;;;4995004;28;20220;-74
2021/05/25 02:53:04;;;;;;;2.15;0.50;;;9.90;99.70;;;;;;5013052;28;20185;-74
2021/05/25 02:55:36;;;;;;;1.60;0.60;;;9.90;99.90;;;;;;5004194;28;20620;-76
2021/05/25 02:58:05;;;;;;;1.30;0.50;;;9.90;99.90;;;;;;5013310;28;20308;-77
2021/05/25 03:00:41;;;;;;;2.50;0.60;;;10.00;99.90;;;;;;5005254;28;20274;-75
2021/05/25 03:03:10;;;;;;;1.48;0.47;;;10.00;99.90;;;;;;5012826;28;20216;-75
2021/05/25 03:05:38;;;;;;;3.05;0.50;;;10.10;99.90;;;;;;4999590;28;20272;-74
2021/05/25 03:08:09;;;;;;;1.10;0.35;;;10.00;99.90;;;;;;4996201;28;20210;-74
2021/05/25 03:10:38;;;;;;;1.30;0.30;;;10.00;99.90;;;;;;4986245;28;20191;-75
2021/05/25 03:13:05;;;;;;;1.60;0.60;;;10.00;99.90;;;;;;5027295;28;20189;-74
2021/05/25 03:15:35;;;;;;;1.40;0.70;;;10.00;99.90;;;;;;5016015;28;20186;-76
2021/05/25 03:18:03;;;;;;;1.65;0.70;;;10.00;99.90;;;;;;5016650;28;20571;-75
2021/05/25 03:20:33;;;;;;;2.00;1.10;;;9.90;99.90;;;;;;5012864;28;20687;-76
2021/05/25 03:23:01;;;;;;;1.67;0.90;;;9.90;99.90;;;;;;5011730;28;20251;-75
2021/05/25 03:25:28;;;;;;;3.05;1.33;;;9.80;99.90;;;;;;5023160;28;20211;-75
2021/05/25 03:27:55;;;;;;;5.13;1.63;;;9.80;99.90;;;;;;5028822;28;20283;-75
2021/05/25 03:30:24;;;;;;;2.15;1.13;;;9.80;99.90;;;;;;5032886;28;20271;-74
2021/05/25 03:32:52;;;;;;;3.97;1.55;;;9.90;99.90;;;;;;5018210;28;20190;-75
2021/05/25 03:35:21;;;;;;;2.47;1.25;;;9.90;99.90;;;;;;5012913;28;20222;-76
2021/05/25 03:37:48;;;;;;;1.90;1.02;;;9.90;99.90;;;;;;5027034;28;20239;-75
2021/05/25 03:40:17;;;;;;;4.18;1.48;;;9.90;99.90;;;;;;4999902;28;20214;-75
2021/05/25 03:42:48;;;;;;;2.05;0.80;;;9.90;99.90;;;;;;5019883;28;20275;-76
2021/05/25 03:45:17;;;;;;;2.65;0.95;;;9.90;99.90;;;;;;5032072;28;20213;-76
2021/05/25 03:47:47;;;;;;;4.53;0.90;;;9.90;99.90;;;;;;4997988;28;20632;-77
2021/05/25 03:50:17;;;;;;;2.60;0.70;;;10.00;99.90;;;;;;5029086;28;20266;-76
2021/05/25 03:52:47;;;;;;;1.40;0.50;;;10.00;99.90;;;;;;5002301;28;20205;-75
2021/05/25 04:01:06;;;;;;;1.80;0.50;;;10.00;99.90;;;;;;5033150;28;20182;-76
2021/05/25 04:03:34;;;;;;;1.55;0.55;;;10.00;99.90;;;;;;4995145;28;20341;-76
2021/05/25 04:06:01;;;;;;;1.20;0.50;;;10.10;99.90;;;;;;5013310;28;20185;-76
2021/05/25 04:08:28;;;;;;;3.22;0.60;;;10.10;99.90;;;;;;5030784;28;20231;-75
2021/05/25 04:10:55;;;;;;;2.55;0.60;;;10.10;99.90;;;;;;5018702;28;20537;-76
2021/05/25 04:13:24;;;;;;;2.22;0.80;;;10.00;99.90;;;;;;5012230;28;20236;-76
2021/05/25 04:15:56;;;;;;;1.40;0.65;;;10.00;99.90;;;;;;5032534;28;20225;-75
2021/05/25 04:18:23;;;;;;;2.83;0.70;;;10.00;99.90;;;;;;5012531;28;20275;-75
2021/05/25 04:20:51;;;;;;;1.30;0.50;;;10.00;99.90;;;;;;4996414;28;20194;-75
2021/05/25 04:23:21;;;;;;;2.67;1.00;;;10.00;99.90;;;;;;5011938;28;20226;-75
2021/05/25 04:25:51;;;;;;;2.13;0.77;;;10.10;99.90;;;;;;4990358;28;20242;-75
2021/05/25 04:28:21;;;;;;;3.33;0.70;;;10.10;99.90;;;;;;5008252;28;20221;-74
2021/05/25 04:30:48;;;;;;;3.45;0.70;;;10.10;99.90;;;;;;5011319;28;20288;-75
2021/05/25 04:33:18;;;;;;;1.63;0.55;;;10.10;99.90;;;;;;5022529;28;20182;-76
2021/05/25 04:35:45;;;;;;;1.45;0.60;;;10.10;99.90;;;;;;4994750;28;20597;-75
2021/05/25 04:38:14;;;;;;;1.52;0.65;;;10.10;99.90;;;;;;5011327;28;20699;-75
2021/05/25 04:40:50;;;;;;;1.77;0.60;;;10.10;99.90;;;;;;4976716;28;20199;-74
2021/05/25 04:43:17;;;;;;;1.10;0.80;;;10.10;99.90;;;;;;5011386;28;20202;-76
2021/05/25 04:45:44;;;;;;;1.95;0.75;;;10.10;99.90;;;;;;4999577;28;20219;-75
2021/05/25 04:48:12;;;;;;;1.85;1.40;;;10.10;99.90;;;;;;5028282;28;20201;-75
2021/05/25 04:50:40;;;;;;;1.40;0.95;;;10.10;99.90;;;;;;5028988;28;20204;-76
2021/05/25 04:53:07;;;;;;;1.40;0.60;;;10.10;99.90;;;;;;5014576;28;20208;-76
2021/05/25 04:55:34;;;;;;;1.13;0.90;;;10.10;99.90;;;;;;5028635;28;20193;-76
2021/05/25 04:58:04;;;;;;;6.63;0.70;;;10.10;99.90;;;;;;5000135;28;20295;-77
2021/05/25 05:00:33;;;;;;;6.38;0.90;;;10.10;99.90;;;;;;5031945;28;20525;-75
2021/05/25 05:03:11;;;;;;;2.17;0.80;;;10.00;99.90;;;;;;5025926;28;20210;-78
2021/05/25 05:05:39;;;;;;;1.20;0.70;;;10.00;99.90;;;;;;5012236;28;20178;-77
2021/05/25 05:08:06;;;;;;;1.23;0.60;;;9.90;99.90;;;;;;5007821;28;20201;-77
2021/05/25 05:10:33;;;;;;;1.45;0.60;;;10.00;99.90;;;;;;4994850;28;20218;-78
2021/05/25 05:13:08;;;;;;;1.00;0.50;;;10.00;99.90;;;;;;5000720;28;20209;-75
2021/05/25 05:15:38;;;;;;;2.65;0.82;;;10.00;99.90;;;;;;5014403;28;20590;-76
2021/05/25 05:18:08;;;;;;;1.00;0.50;;;10.00;99.90;;;;;;4996893;28;20273;-78
2021/05/25 05:20:38;;;;;;;7.93;0.80;;;10.00;99.90;;;;;;4986926;28;20194;-74
2021/05/25 05:23:11;;;;;;;0.70;0.40;;;9.90;99.90;;;;;;4995390;28;20198;-75
2021/05/25 05:25:48;;;;;;;0.68;0.60;;;9.90;99.90;;;;;;5011397;28;20182;-75
2021/05/25 05:28:15;;;;;;;1.00;0.55;;;9.90;99.90;;;;;;4993705;28;20300;-76
2021/05/25 05:30:42;;;;;;;0.98;0.43;;;9.90;99.90;;;;;;5012005;28;20205;-76
2021/05/25 05:33:09;;;;;;;1.40;0.60;;;9.90;99.90;;;;;;4978371;28;20293;-77
2021/05/25 05:35:39;;;;;;;2.65;0.60;;;9.90;99.90;;;;;;4993915;28;20224;-77
2021/05/25 05:38:13;;;;;;;1.52;1.02;;;9.90;99.90;;;;;;5003046;28;20237;-77
2021/05/25 05:40:40;;;;;;;1.33;0.65;;;9.90;99.90;;;;;;5001728;28;20186;-75
2021/05/25 05:43:19;;;;;;;1.55;0.70;;;10.00;99.90;;;;;;4986076;28;20251;-76
2021/05/25 05:45:49;;;;;;;2.03;0.88;;;10.00;99.90;;;;;;4994870;28;20197;-75
2021/05/25 05:48:32;;;;;;;1.10;0.70;;;10.00;99.90;;;;;;5013365;28;20221;-76
2021/05/25 05:51:02;;;;;;;2.65;0.70;;;10.00;99.90;;;;;;5012383;28;20248;-76
2021/05/25 05:53:29;;;;;;;0.88;0.60;;;10.10;99.90;;;;;;5005217;28;20249;-76
2021/05/25 05:56:02;;;;;;;0.98;0.50;;;10.20;99.90;;;;;;4979929;28;20202;-76
2021/05/25 05:58:31;;;;;;;1.35;0.50;;;10.20;99.90;;;;;;4981326;28;20233;-75
2021/05/25 06:00:58;;;;;;;1.02;0.50;;;10.20;99.90;;;;;;5003526;28;20201;-77
2021/05/25 06:03:28;;;;;;;0.80;0.47;;;10.30;99.90;;;;;;5003086;28;20700;-76
2021/05/25 06:05:55;;;;;;;0.60;0.50;;;10.30;99.90;;;;;;4999699;28;20194;-75
2021/05/25 06:08:24;;;;;;;1.00;0.50;;;10.40;99.90;;;;;;5012796;28;20221;-77
2021/05/25 06:10:54;;;;;;;1.35;0.50;;;10.60;99.90;;;;;;5009630;28;20198;-73
2021/05/25 06:13:25;;;;;;;1.55;0.40;;;10.50;99.90;;;;;;4983536;28;20274;-75
2021/05/25 06:16:02;;;;;;;0.80;0.40;;;10.50;99.90;;;;;;4998221;28;20224;-76
2021/05/25 06:18:33;;;;;;;1.60;0.50;;;10.50;99.90;;;;;;4992789;28;20222;-75
2021/05/25 06:21:02;;;;;;;2.10;0.50;;;10.50;99.90;;;;;;5007598;28;20193;-77
2021/05/25 06:23:34;;;;;;;1.00;0.35;;;10.50;99.90;;;;;;4999621;28;20719;-75
2021/05/25 06:26:08;;;;;;;1.10;0.50;;;10.50;99.90;;;;;;4982825;28;20204;-76
2021/05/25 06:28:38;;;;;;;1.00;0.50;;;10.60;99.90;;;;;;4996542;28;20233;-75
2021/05/25 06:31:08;;;;;;;1.17;0.70;;;10.70;99.90;;;;;;5018104;28;20179;-74
2021/05/25 06:33:39;;;;;;;2.10;0.82;;;10.70;99.90;;;;;;4999956;28;20225;-75
2021/05/25 06:36:09;;;;;;;2.80;0.65;;;10.80;99.90;;;;;;5013934;28;20190;-76
2021/05/25 06:38:37;;;;;;;0.90;0.55;;;10.70;99.90;;;;;;5013514;28;20230;-75
2021/05/25 06:41:07;;;;;;;1.08;0.52;;;10.70;99.90;;;;;;5013079;28;20548;-76
2021/05/25 06:43:34;;;;;;;1.50;0.65;;;10.60;99.90;;;;;;4996353;28;20242;-76
2021/05/25 06:46:06;;;;;;;2.08;0.70;;;10.60;99.90;;;;;;5013122;28;20199;-76
2021/05/25 06:48:39;;;;;;;0.90;0.60;;;10.60;99.90;;;;;;4995548;28;20225;-76
2021/05/25 06:51:08;;;;;;;0.95;0.75;;;10.70;99.90;;;;;;4997807;28;20190;-74
2021/05/25 06:53:41;;;;;;;0.88;0.70;;;10.80;99.90;;;;;;5016697;28;20217;-76
2021/05/25 06:56:08;;;;;;;2.25;1.25;;;10.80;99.90;;;;;;4995392;28;20232;-79
2021/05/25 06:58:38;;;;;;;1.83;0.77;;;10.70;99.90;;;;;;5006361;28;20225;-77
2021/05/25 07:01:08;;;;;;;0.98;0.80;;;10.50;99.90;;;;;;5016108;28;20189;-77
2021/05/25 07:03:38;;;;;;;1.60;1.13;;;10.40;99.90;;;;;;4986531;28;20233;-76
2021/05/25 07:06:19;;;;;;;1.88;1.00;;;10.30;99.90;;;;;;4977138;28;20289;-78
2021/05/25 07:08:47;;;;;;;2.00;1.10;;;10.20;99.90;;;;;;4995905;28;20217;-76
2021/05/25 07:11:14;;;;;;;2.83;1.10;;;10.20;99.90;;;;;;5025320;28;20528;-76
2021/05/25 07:13:41;;;;;;;1.67;0.80;;;10.20;99.90;;;;;;4997502;28;20557;-75
2021/05/25 07:16:10;;;;;;;1.40;1.27;;;10.20;99.90;;;;;;5021101;28;20178;-75
2021/05/25 07:18:37;;;;;;;2.05;0.98;;;10.20;99.90;;;;;;5006440;28;20217;-76
2021/05/25 07:21:04;;;;;;;0.93;0.60;;;10.10;99.90;;;;;;4997850;28;20607;-76
2021/05/25 07:23:32;;;;;;;1.13;0.60;;;10.10;99.90;;;;;;4995637;28;20283;-75
2021/05/25 07:26:01;;;;;;;1.08;0.60;;;10.10;99.90;;;;;;5007029;28;20228;-74
2021/05/25 07:28:27;;;;;;;0.60;0.55;;;10.20;99.90;;;;;;5005671;28;20683;-75
2021/05/25 07:30:54;;;;;;;0.68;0.60;;;10.50;99.90;;;;;;5015845;28;20220;-76
2021/05/25 07:33:26;;;;;;;0.68;0.40;;;10.70;99.90;;;;;;5023356;28;20245;-76
2021/05/25 07:36:03;;;;;;;4.20;1.10;;;11.00;99.90;;;;;;4996031;28;20191;-75
2021/05/25 07:38:31;;;;;;;1.50;1.10;;;11.30;99.90;;;;;;5029361;28;20750;-74
2021/05/25 07:41:00;;;;;;;1.13;0.60;;;11.60;99.90;;;;;;5018586;28;20269;-76
2021/05/25 07:43:29;;;;;;;1.30;0.70;;;11.80;99.90;;;;;;5014043;28;20952;-73
2021/05/25 07:46:00;;;;;;;1.30;0.50;;;11.80;99.90;;;;;;4995717;28;20495;-75
2021/05/25 07:48:27;;;;;;;1.70;0.60;;;11.80;99.90;;;;;;5016893;28;20462;-73
2021/05/25 07:50:54;;;;;;;1.40;0.55;;;11.70;99.90;;;;;;5018307;28;20441;-73
2021/05/25 07:53:24;;;;;;;2.47;0.68;;;11.50;99.90;;;;;;5011464;28;20233;-76
2021/05/25 07:55:51;;;;;;;2.60;0.70;;;11.30;99.90;;;;;;5002186;28;20197;-76
2021/05/25 07:58:19;;;;;;;1.20;0.70;;;11.10;99.90;;;;;;5011981;28;20207;-78
2021/05/25 08:00:46;;;;;;;1.15;0.70;;;10.90;99.90;;;;;;5001933;28;20190;-76
2021/05/25 08:03:16;;;;;;;1.48;0.85;;;10.70;99.90;;;;;;5011295;28;20240;-75
2021/05/25 08:05:47;;;;;;;1.83;0.60;;;10.60;99.90;;;;;;5016115;28;20188;-76
2021/05/25 08:08:14;;;;;;;1.05;0.60;;;10.40;99.90;;;;;;5013916;28;20225;-77
2021/05/25 08:10:41;;;;;;;3.50;0.90;;;10.40;99.90;;;;;;5006746;28;20189;-76
2021/05/25 08:13:08;;;;;;;3.80;0.90;;;10.30;99.90;;;;;;5032004;28;20186;-74
2021/05/25 08:15:40;;;;;;;1.45;0.80;;;10.40;99.90;;;;;;4996687;28;20186;-77
2021/05/25 08:18:14;;;;;;;1.13;1.02;;;10.40;99.90;;;;;;5012796;28;20578;-76
2021/05/25 08:20:46;;;;;;;1.55;0.60;;;10.40;99.90;;;;;;4984124;28;20201;-75
2021/05/25 08:23:25;;;;;;;1.13;1.02;;;10.50;99.90;;;;;;4990172;28;20222;-75
2021/05/25 08:25:53;;;;;;;1.58;1.17;;;10.70;99.90;;;;;;5001551;28;20194;-75
2021/05/25 08:28:25;;;;;;;1.58;0.70;;;10.70;99.90;;;;;;4993876;28;20219;-77
2021/05/25 08:30:52;;;;;;;1.33;0.90;;;10.80;99.90;;;;;;5018123;28;20190;-74
2021/05/25 08:33:20;;;;;;;3.72;1.30;;;10.70;99.90;;;;;;5013973;28;20283;-74
2021/05/25 08:35:49;;;;;;;3.03;1.00;;;10.60;99.90;;;;;;5019382;28;20637;-75
2021/05/25 08:38:20;;;;;;;0.80;0.50;;;10.60;99.90;;;;;;5001100;28;20643;-76
2021/05/25 08:40:52;;;;;;;0.60;0.40;;;10.50;99.90;;;;;;5003429;28;20209;-74
2021/05/25 08:43:23;;;;;;;2.00;0.70;;;10.40;99.90;;;;;;5011077;28;20221;-75
2021/05/25 08:45:51;;;;;;;2.30;0.90;;;10.40;99.90;;;;;;5015473;28;20230;-75
2021/05/25 08:48:19;;;;;;;0.70;0.68;;;10.40;99.90;;;;;;5000601;28;20213;-75
2021/05/25 08:51:01;;;;;;;0.85;0.60;;;10.50;99.90;;;;;;5000201;28;20198;-75
2021/05/25 08:53:29;;;;;;;0.70;0.63;;;10.80;99.90;;;;;;4994350;28;20210;-74
2021/05/25 08:55:58;;;;;;;0.95;0.55;;;11.00;99.90;;;;;;5009614;28;20681;-74
2021/05/25 08:58:25;;;;;;;0.98;0.60;;;11.20;99.90;;;;;;5016772;28;20228;-74
2021/05/25 09:00:54;;;;;;;1.10;0.90;;;11.30;99.90;;;;;;4991328;28;20182;-74
2021/05/25 09:03:24;;;;;;;1.47;1.20;;;11.40;99.90;;;;;;5025791;28;20223;-74
2021/05/25 09:05:59;;;;;;;1.75;1.10;;;11.60;99.90;;;;;;5019960;28;20979;-73
2021/05/25 09:08:26;;;;;;;1.15;1.00;;;11.90;99.90;;;;;;4996764;28;20274;-73
2021/05/25 09:10:59;;;;;;;1.67;1.35;;;12.20;99.90;;;;;;5007356;28;20251;-73
2021/05/25 09:13:29;;;;;;;1.60;1.10;;;12.20;99.90;;;;;;5013516;28;20303;-74
2021/05/25 09:15:58;;;;;;;2.20;1.20;;;12.10;99.90;;;;;;5024072;28;20440;-75
2021/05/25 09:18:33;;;;;;;1.77;1.00;;;12.10;99.90;;;;;;4995102;28;20713;-74
2021/05/25 09:21:02;;;;;;;1.30;1.00;;;12.10;99.90;;;;;;4992956;28;20202;-74
2021/05/25 09:23:32;;;;;;;2.30;1.70;;;12.00;99.90;;;;;;4982969;28;20488;-75
2021/05/25 09:26:27;;;;;;;1.80;1.20;;;11.90;99.90;;;;;;4999835;28;20480;-75
2021/05/25 09:28:57;;;;;;;1.37;1.27;;;11.90;99.90;;;;;;5015437;28;20243;-74
2021/05/25 09:31:51;;;;;;;1.53;1.43;;;11.90;99.90;;;;;;5026648;28;20524;-73
2021/05/25 09:34:20;;;;;;;2.90;1.83;;;11.90;99.90;;;;;;5014439;28;20472;-74
2021/05/25 09:37:00;;;;;;;1.63;1.52;;;12.00;99.90;;;;;;5015608;28;20448;-75
2021/05/25 09:39:40;;;;;;;3.37;2.27;;;12.20;99.90;;;;;;5012599;28;20217;-75
2021/05/25 09:42:10;;;;;;;1.93;1.80;;;12.50;99.90;;;;;;4998538;28;20429;-74
2021/05/25 09:44:55;;;;;;;2.33;2.13;;;12.70;99.90;;;;;;4997211;28;20526;-74
2021/05/25 09:47:42;;;;;;;3.10;1.93;;;12.80;99.90;;;;;;4987380;28;20551;-74
2021/05/25 09:50:13;;;;;;;5.03;3.10;;;12.80;99.90;;;;;;4996894;28;20473;-75
2021/05/25 09:53:11;;;;;;;4.07;3.40;;;12.60;99.90;;;;;;5033810;28;20479;-74
2021/05/25 09:55:55;;;;;;;3.10;2.47;;;12.50;99.90;;;;;;4977729;28;20534;-72
2021/05/25 09:58:49;;;;;;;4.30;3.50;;;12.40;99.90;;;;;;5005601;28;20524;-72
2021/05/25 10:01:18;;;;;;;4.20;3.60;;;12.30;99.90;;;;;;5015631;28;20874;-75
2021/05/25 10:03:55;;;;;;;4.33;3.33;;;12.20;99.90;;;;;;5013910;28;20506;-73
2021/05/25 10:06:25;;;;;;;3.43;3.13;;;12.20;99.90;;;;;;4997900;28;20447;-73
2021/05/25 10:08:55;;;;;;;3.73;2.73;;;12.30;99.90;;;;;;4997371;28;20992;-73
2021/05/25 10:11:22;;;;;;;5.03;3.83;;;12.30;99.90;;;;;;4997091;28;20452;-74
2021/05/25 10:13:50;;;;;;;5.43;3.50;;;12.30;99.90;;;;;;5013250;28;20452;-73
2021/05/25 10:16:23;;;;;;;4.83;2.33;;;12.40;99.90;;;;;;5013760;28;20941;-73
2021/05/25 10:19:03;;;;;;;2.50;2.23;;;12.30;99.90;;;;;;4982280;28;20503;-76
2021/05/25 10:21:31;;;;;;;4.70;2.97;;;12.50;99.90;;;;;;4999661;28;20475;-75
2021/05/25 10:24:00;;;;;;;2.77;2.30;;;12.60;99.90;;;;;;5014419;28;21049;-77
2021/05/25 10:26:29;;;;;;;3.40;3.20;;;12.70;99.90;;;;;;4983279;28;20528;-74
2021/05/25 10:29:06;;;;;;;3.43;3.13;;;12.60;99.90;;;;;;4964686;28;20462;-75
2021/05/25 10:31:39;;;;;;;7.17;3.30;;;12.30;99.90;;;;;;4986211;28;20437;-76
2021/05/25 10:34:21;;;;;;;3.77;3.13;;;12.10;99.90;;;;;;4984206;28;20518;-74
2021/05/25 10:36:55;;;;;;;5.47;4.05;;;11.80;99.90;;;;;;4995878;28;20447;-77
2021/05/25 10:39:28;;;;;;;4.90;4.40;;;11.60;99.90;;;;;;4999499;28;20308;-78
2021/05/25 10:42:27;;;;;;;6.22;5.72;;;11.60;99.90;;;;;;4980974;28;20420;-76
2021/05/25 10:45:17;;;;;;;7.23;6.60;;;11.60;99.90;;;;;;4988485;28;20257;-74
2021/05/25 10:48:06;;;;;;;6.63;5.30;;;11.60;99.90;;;;;;4997446;28;20474;-77
2021/05/25 10:50:38;;;;;;;5.27;4.13;;;11.60;99.90;;;;;;5018594;28;20562;-76
2021/05/25 10:53:06;;;;;;;6.43;4.20;;;11.60;99.90;;;;;;5023281;28;20483;-74
2021/05/25 10:55:35;;;;;;;5.20;4.70;;;11.60;99.90;;;;;;5013411;28;20841;-76
2021/05/25 10:58:20;;;;;;;5.50;3.90;;;11.50;99.90;;;;;;5016604;28;20544;-76
2021/05/25 11:00:51;;;;;;;5.17;4.67;;;11.40;99.90;;;;;;5015641;28;20507;-77
2021/05/25 11:03:20;;;;;;;5.70;4.57;;;11.40;99.90;;;;;;4997021;28;20950;-76
2021/05/25 11:05:49;;;;;;;5.80;4.77;;;11.60;99.90;;;;;;4987625;28;20468;-75
2021/05/25 11:08:17;;;;;;;7.57;5.40;;;11.90;99.90;;;;;;5013090;28;20449;-74
2021/05/25 11:11:10;;;;;;;6.47;5.87;;;12.40;99.90;;;;;;4987839;28;20532;-74
2021/05/25 11:13:40;;;;;;;6.70;5.23;;;12.90;99.90;;;;;;4997187;28;20535;-74
2021/05/25 11:16:11;;;;;;;6.23;4.37;;;13.10;99.90;;;;;;5000076;28;20473;-75
2021/05/25 11:19:09;;;;;;;5.33;4.30;;;13.30;99.90;;;;;;4989073;28;20493;-73
2021/05/25 11:22:22;;;;;;;3.20;2.33;;;13.30;99.90;;;;;;4995703;28;20422;-77
2021/05/25 11:27:26;;;;;;;3.00;1.50;;;12.80;99.90;;;;;;5003332;28;20448;-76
2021/05/25 11:30:00;;;;;;;4.50;2.00;;;12.40;99.90;;;;;;5003355;28;20473;-75
2021/05/25 11:32:28;;;;;;;8.43;2.30;;;12.10;99.90;;;;;;4977917;28;20811;-75
2021/05/25 11:35:03;;;;;;;3.93;2.87;;;12.00;99.90;;;;;;4969999;28;20469;-77
2021/05/25 11:37:42;;;;;;;4.63;2.27;;;12.10;99.90;;;;;;4997283;28;20488;-77
2021/05/25 11:40:18;;;;;;;2.83;1.90;;;12.40;99.90;;;;;;5005893;28;20464;-76
2021/05/25 11:42:47;;;;;;;3.63;2.10;;;12.60;99.90;;;;;;5020759;28;20435;-77
2021/05/25 11:45:17;;;;;;;5.00;1.97;;;12.80;99.90;;;;;;5022476;28;20464;-76
2021/05/25 11:47:51;;;;;;;3.80;2.10;;;13.00;99.90;;;;;;5012596;28;20465;-76
2021/05/25 11:50:18;;;;;;;4.80;3.00;;;13.10;99.90;;;;;;5015683;28;20484;-77
2021/05/25 11:53:09;;;;;;;3.13;2.87;;;13.20;99.90;;;;;;5008961;28;20468;-74
2021/05/25 11:55:41;;;;;;;7.00;2.67;;;13.20;99.90;;;;;;4997039;28;20888;-74
2021/05/25 11:58:09;;;;;;;4.30;1.77;;;13.10;99.90;;;;;;5003423;28;20456;-75
2021/05/25 12:00:36;;;;;;;4.77;1.67;;;13.00;99.90;;;;;;5008748;28;20445;-75
2021/05/25 12:03:10;;;;;;;4.60;1.53;;;12.80;99.90;;;;;;5027398;28;20432;-76
2021/05/25 12:05:39;;;;;;;3.30;1.97;;;12.80;99.90;;;;;;5014715;28;20519;-74
2021/05/25 12:08:11;;;;;;;3.60;1.87;;;12.80;99.90;;;;;;5010935;28;20459;-75
2021/05/25 12:10:42;;;;;;;4.27;1.30;;;12.60;99.90;;;;;;5000626;28;20440;-77
2021/05/25 12:13:15;;;;;;;4.20;1.60;;;12.50;99.90;;;;;;5013135;28;20425;-74
2021/05/25 12:15:47;;;;;;;3.10;1.50;;;12.00;99.90;;;;;;5010186;28;20941;-74
2021/05/25 12:18:18;;;;;;;3.10;1.60;;;11.70;99.90;;;;;;4994533;28;20541;-76
2021/05/25 12:20:50;;;;;;;3.05;1.23;;;11.40;99.90;;;;;;4999617;28;20284;-77
2021/05/25 12:23:28;;;;;;;1.30;1.05;;;11.30;99.90;;;;;;4983303;28;20211;-74
2021/05/25 12:26:14;;;;;;;1.30;1.10;;;10.80;99.90;;;;;;5001199;28;20209;-75
2021/05/25 12:28:46;;;;;;;2.53;0.82;;;10.40;99.90;;;;;;4993782;28;20217;-76
2021/05/25 12:31:29;;;;;;;3.35;0.90;;;;;;;;;;4997702;28;20182;-78
2021/05/25 12:34:00;;;;;;;4.18;1.10;;;10.00;99.90;;;;;;4980062;28;20237;-73
2021/05/25 12:36:54;;;;;;;2.00;1.05;;;10.00;99.90;;;;;;5004077;28;20206;-75
2021/05/25 12:39:40;;;;;;;1.42;1.10;;;10.00;99.90;;;;;;5011158;28;20291;-72
2021/05/25 12:42:18;;;;;;;3.17;1.38;;;10.00;99.90;;;;;;4993207;28;20187;-76
2021/05/25 12:44:45;;;;;;;1.60;1.25;;;9.90;99.90;;;;;;4992226;28;20232;-77
2021/05/25 12:47:15;;;;;;;3.00;1.55;;;9.90;99.90;;;;;;4992515;28;20206;-73
2021/05/25 12:49:51;;;;;;;1.27;1.17;;;9.90;99.90;;;;;;4980051;28;20214;-75
2021/05/25 12:52:19;;;;;;;3.10;1.52;;;10.00;99.90;;;;;;4975318;28;20199;-78
2021/05/25 12:55:08;;;;;;;4.65;1.40;;;10.20;99.90;;;;;;5003035;28;20595;-76
2021/05/25 12:57:45;;;;;;;3.42;1.73;;;10.30;99.90;;;;;;4984987;28;20221;-76
2021/05/25 13:00:14;;;;;;;1.75;1.50;;;10.60;99.90;;;;;;5013878;28;20275;-76
2021/05/25 13:02:51;;;;;;;2.95;1.45;;;10.70;99.90;;;;;;4992827;28;20189;-77
2021/05/25 13:05:27;;;;;;;7.78;2.78;;;11.00;99.90;;;;;;5011030;28;20687;-75
2021/05/25 13:08:04;;;;;;;3.53;2.28;;;11.20;99.90;;;;;;4986362;28;20310;-75
2021/05/25 13:10:39;;;;;;;5.15;3.17;;;11.30;99.90;;;;;;5013003;28;20237;-74
2021/05/25 13:13:20;;;;;;;1.90;1.50;;;11.30;99.90;;;;;;5016377;28;20180;-77
2021/05/25 13:15:52;;;;;;;2.23;1.30;;;11.30;99.90;;;;;;5023137;28;20229;-74
2021/05/25 13:18:21;;;;;;;2.57;2.07;;;11.40;99.90;;;;;;4980072;28;20465;-75
2021/05/25 13:21:00;;;;;;;3.40;1.20;;;11.50;99.90;;;;;;4995627;28;20445;-75
2021/05/25 13:23:31;;;;;;;1.40;1.17;;;11.50;99.90;;;;;;4998789;28;21161;-75